Main page
METAR-TAF:

METAR-TAF

Airports :

Roman Tmetuchl International Airport

Koror, Babeldaob, Palau

latitude: 07-22N, longitude: 134-32E, elevation: 54 m

Current weather observation

The report was made 1 hour and 1 minutes ago, at 17:50 UTC
Calm wind
Temperature 23°C
Humidity 94%
Pressure 1009 hPa
Visibility: 22.5 km
Few clouds at a height of 1500 ft
Scattered clouds at a height of 29000 ft

METAR: PTRO 171750Z 00000KT 14SM FEW015 SCT290 23/22 A2980

Time: 03:51 (18:51 UTC)

Forecast

The report was made 1 hour and 11 minutes ago, at 17:40 UTC
Forecast valid from 17 at 18 UTC to 18 at 18 UTC
Wind 7 kt from the North
Visibility: 10 km
Scattered clouds at a height of 1600 ft
Broken clouds at a height of 5000 ft
showers in vicinity

TAF: PTRO 171740Z 1718/1818 01007KT P6SM VCSH SCT016 BKN050

Weather observations and forecasts of more than 4000 airports (METAR and TAF reports).

The available stations are represented by yellow and red dots on the map.

Hover mouse over dot to see the name of the station.

Then click to see weather observations and forecasts.

To change the map : click on the green buttons with a black cross to zoom in, on the green button with a dash to zoom out, or on the green arrows for adjacent maps.


METAR-TAF: